createdAt,value
2018-10-21T00:00:01.618Z,19.40
2018-10-21T00:01:01.531Z,21.10
2018-10-21T00:02:01.520Z,19.00
2018-10-21T00:03:01.539Z,16.90
2018-10-21T00:04:01.520Z,18.20
2018-10-21T00:05:01.485Z,20.80
2018-10-21T00:06:01.545Z,20.20
2018-10-21T00:07:01.463Z,18.80
2018-10-21T00:08:01.454Z,20.40
2018-10-21T00:09:01.482Z,20.40
2018-10-21T00:10:01.435Z,20.10
2018-10-21T00:11:01.482Z,18.30
2018-10-21T00:12:01.410Z,20.20
2018-10-21T00:13:01.418Z,21.30
2018-10-21T00:14:01.391Z,19.60
2018-10-21T00:15:01.393Z,19.90
2018-10-21T00:16:01.430Z,18.20
2018-10-21T00:17:01.355Z,19.60
2018-10-21T00:18:01.352Z,20.90
2018-10-21T00:19:01.967Z,20.90
2018-10-21T00:20:01.325Z,18.20
2018-10-21T00:21:01.422Z,20.20
2018-10-21T00:22:01.307Z,22.20
2018-10-21T00:23:01.291Z,21.00
2018-10-21T00:24:01.280Z,21.80
2018-10-21T00:25:01.274Z,19.20
2018-10-21T00:26:01.534Z,20.70
2018-10-21T00:27:01.266Z,20.10
2018-10-21T00:28:01.254Z,21.10
2018-10-21T00:29:01.228Z,21.90
2018-10-21T00:30:01.217Z,21.50
2018-10-21T00:31:01.266Z,22.00
2018-10-21T00:32:01.197Z,20.90
2018-10-21T00:33:01.202Z,22.80
2018-10-21T00:34:01.183Z,22.40
2018-10-21T00:35:01.161Z,22.80
2018-10-21T00:36:01.217Z,21.20
2018-10-21T00:37:01.142Z,21.60
2018-10-21T00:38:01.133Z,20.30
2018-10-21T00:39:01.151Z,22.80
2018-10-21T00:40:01.959Z,21.50
2018-10-21T00:41:01.167Z,22.60
2018-10-21T00:42:01.094Z,21.40
2018-10-21T00:43:01.081Z,22.20
2018-10-21T00:44:01.071Z,22.00
2018-10-21T00:45:01.063Z,19.20
2018-10-21T00:46:01.106Z,20.30
2018-10-21T00:47:01.037Z,22.60
2018-10-21T00:48:01.025Z,20.90
2018-10-21T00:49:01.014Z,20.50
2018-10-21T00:50:01.003Z,21.00
2018-10-21T00:51:01.117Z,20.40
2018-10-21T00:52:00.981Z,20.90
2018-10-21T00:53:00.972Z,21.70
2018-10-21T00:54:00.962Z,21.20
2018-10-21T00:55:00.987Z,19.70
2018-10-21T00:56:01.007Z,21.00
2018-10-21T00:57:00.936Z,19.10
2018-10-21T00:58:00.920Z,21.00
2018-10-21T00:59:00.909Z,22.20
2018-10-21T01:00:00.898Z,20.00
2018-10-21T01:01:01.540Z,20.60
2018-10-21T01:02:00.876Z,20.30
2018-10-21T01:03:00.888Z,21.00
2018-10-21T01:04:00.874Z,21.60
2018-10-21T01:05:00.845Z,18.50
2018-10-21T01:06:00.902Z,18.90
2018-10-21T01:07:00.829Z,20.30
2018-10-21T01:08:00.817Z,20.00
2018-10-21T01:09:00.850Z,20.20
2018-10-21T01:10:00.798Z,19.30
2018-10-21T01:11:01.022Z,18.40
2018-10-21T01:12:00.768Z,19.60
2018-10-21T01:13:00.757Z,20.20
2018-10-21T01:14:00.748Z,19.90
2018-10-21T01:15:00.802Z,22.70
2018-10-21T01:16:00.788Z,22.00
2018-10-21T01:17:00.715Z,23.10
2018-10-21T01:18:00.704Z,22.60
2018-10-21T01:19:00.693Z,20.40
2018-10-21T01:20:00.687Z,21.60
2018-10-21T01:21:00.757Z,19.80
2018-10-21T01:22:01.450Z,21.50
2018-10-21T01:23:00.651Z,21.60
2018-10-21T01:24:00.640Z,21.00
2018-10-21T01:25:00.629Z,20.10
2018-10-21T01:26:00.681Z,21.20
2018-10-21T01:27:00.610Z,22.10
2018-10-21T01:28:00.605Z,21.30
2018-10-21T01:29:00.589Z,23.90
2018-10-21T01:30:00.574Z,21.90
2018-10-21T01:31:00.627Z,21.40
2018-10-21T01:32:00.554Z,21.80
2018-10-21T01:33:00.552Z,21.40
2018-10-21T01:34:00.532Z,21.50
2018-10-21T01:35:00.524Z,21.00
2018-10-21T01:36:00.593Z,21.20
2018-10-21T01:37:00.570Z,20.60
2018-10-21T01:38:00.502Z,21.00
2018-10-21T01:39:00.491Z,21.50
2018-10-21T01:40:00.471Z,20.20
2018-10-21T01:41:00.518Z,20.70
2018-10-21T01:42:00.451Z,21.70
2018-10-21T01:43:00.947Z,21.50
2018-10-21T01:44:00.427Z,20.80
2018-10-21T01:45:00.448Z,19.10
2018-10-21T01:46:00.474Z,18.90
2018-10-21T01:47:00.391Z,19.90
2018-10-21T01:48:00.382Z,20.30
2018-10-21T01:49:00.371Z,21.50
2018-10-21T01:50:00.361Z,21.30
2018-10-21T01:51:00.430Z,20.20
2018-10-21T01:52:00.340Z,23.10
2018-10-21T01:53:00.333Z,23.20
2018-10-21T01:54:00.319Z,22.10
2018-10-21T01:55:00.311Z,21.00
2018-10-21T01:56:00.300Z,20.40
2018-10-21T01:57:00.357Z,20.40
2018-10-21T01:58:00.272Z,20.60
2018-10-21T01:59:00.261Z,19.80
2018-10-21T02:00:00.253Z,19.90
2018-10-21T02:01:00.239Z,21.20
2018-10-21T02:02:00.301Z,21.20
2018-10-21T02:03:00.225Z,21.20
2018-10-21T02:04:00.943Z,21.50
2018-10-21T02:05:00.201Z,19.80
2018-10-21T02:06:00.193Z,22.00
2018-10-21T02:07:00.236Z,20.50
2018-10-21T02:08:00.172Z,20.20
2018-10-21T02:09:00.214Z,21.30
2018-10-21T02:10:00.151Z,21.20
2018-10-21T02:11:00.140Z,21.10
2018-10-21T02:12:00.190Z,19.60
2018-10-21T02:13:00.117Z,21.00
2018-10-21T02:14:00.150Z,19.90
2018-10-21T02:15:00.158Z,19.00
2018-10-21T02:16:00.082Z,22.20
2018-10-21T02:17:00.145Z,20.70
2018-10-21T02:18:00.062Z,20.20
2018-10-21T02:19:00.054Z,22.20
2018-10-21T02:20:00.044Z,23.50
2018-10-21T02:21:00.036Z,24.30
2018-10-21T02:22:00.086Z,23.00
2018-10-21T02:23:00.010Z,22.50
2018-10-21T02:23:59.998Z,20.80
2018-10-21T02:25:00.941Z,21.60
2018-10-21T02:25:59.973Z,21.90
2018-10-21T02:27:00.524Z,23.30
2018-10-21T02:27:59.959Z,23.40
2018-10-21T02:28:59.946Z,23.60
2018-10-21T02:29:59.932Z,22.90
2018-10-21T02:30:59.932Z,23.90
2018-10-21T02:31:59.974Z,23.50
2018-10-21T02:32:59.989Z,23.10
2018-10-21T02:33:59.894Z,23.30
2018-10-21T02:34:59.880Z,23.40
2018-10-21T02:35:59.868Z,23.30
2018-10-21T02:36:59.921Z,24.20
2018-10-21T02:37:59.852Z,23.90
2018-10-21T02:38:59.862Z,24.60
2018-10-21T02:39:59.827Z,23.70
2018-10-21T02:40:59.816Z,25.50
2018-10-21T02:41:59.869Z,25.40
2018-10-21T02:42:59.797Z,24.70
2018-10-21T02:43:59.782Z,23.70
2018-10-21T02:44:59.784Z,23.10
2018-10-21T02:46:04.431Z,25.60
2018-10-21T02:46:59.824Z,23.90
2018-10-21T02:47:59.741Z,24.00
2018-10-21T02:48:59.732Z,21.60
2018-10-21T02:49:59.725Z,22.10
2018-10-21T02:50:59.757Z,22.00
2018-10-21T02:51:59.760Z,25.40
2018-10-21T02:52:59.689Z,25.40
2018-10-21T02:53:59.675Z,24.50
2018-10-21T02:54:59.669Z,26.10
2018-10-21T02:55:59.659Z,23.90
2018-10-21T02:56:59.770Z,22.60
2018-10-21T02:57:59.652Z,21.30
2018-10-21T02:58:59.622Z,23.90
2018-10-21T02:59:59.625Z,21.60
2018-10-21T03:00:59.608Z,21.80
2018-10-21T03:01:59.653Z,21.40
2018-10-21T03:02:59.584Z,20.70
2018-10-21T03:03:59.572Z,20.70
2018-10-21T03:04:59.562Z,21.00
2018-10-21T03:05:59.553Z,21.80
2018-10-21T03:07:00.503Z,21.00
2018-10-21T03:07:59.531Z,21.10
2018-10-21T03:08:59.593Z,22.60
2018-10-21T03:09:59.508Z,21.60
2018-10-21T03:10:59.501Z,23.20
2018-10-21T03:11:59.559Z,21.00
2018-10-21T03:12:59.481Z,20.50
2018-10-21T03:13:59.467Z,22.20
2018-10-21T03:14:59.461Z,20.40
2018-10-21T03:15:59.445Z,19.00
2018-10-21T03:16:59.500Z,19.80
2018-10-21T03:17:59.430Z,20.70
2018-10-21T03:18:59.427Z,21.30
2018-10-21T03:19:59.423Z,21.80
2018-10-21T03:20:59.439Z,22.40
2018-10-21T03:21:59.448Z,22.60
2018-10-21T03:22:59.374Z,21.50
2018-10-21T03:23:59.360Z,23.80
2018-10-21T03:24:59.354Z,20.90
2018-10-21T03:25:59.340Z,22.00
2018-10-21T03:26:59.408Z,20.60
2018-10-21T03:28:00.927Z,21.40
2018-10-21T03:28:59.309Z,21.20
2018-10-21T03:29:59.298Z,22.30
2018-10-21T03:30:59.284Z,21.50
2018-10-21T03:31:59.342Z,20.30
2018-10-21T03:32:59.350Z,21.90
2018-10-21T03:33:59.334Z,22.70
2018-10-21T03:34:59.243Z,20.60
2018-10-21T03:35:59.240Z,21.70
2018-10-21T03:36:59.282Z,22.30
2018-10-21T03:37:59.215Z,19.90
2018-10-21T03:38:59.238Z,20.70
2018-10-21T03:39:59.245Z,25.40
2018-10-21T03:40:59.182Z,21.30
2018-10-21T03:41:59.245Z,21.30
2018-10-21T03:42:59.163Z,21.00
2018-10-21T03:43:59.154Z,20.20
2018-10-21T03:44:59.138Z,21.50
2018-10-21T03:45:59.165Z,22.00
2018-10-21T03:46:59.119Z,20.50
2018-10-21T03:47:59.187Z,20.10
2018-10-21T03:48:59.924Z,19.30
2018-10-21T03:49:59.090Z,21.40
2018-10-21T03:50:59.079Z,22.40
2018-10-21T03:51:59.105Z,18.70
2018-10-21T03:52:59.115Z,33.90
2018-10-21T03:53:59.044Z,36.50
2018-10-21T03:54:59.033Z,28.70
2018-10-21T03:55:59.036Z,25.60
2018-10-21T03:56:59.013Z,33.80
2018-10-21T03:57:59.089Z,23.60
2018-10-21T03:58:58.998Z,25.50
2018-10-21T03:59:58.980Z,23.90
2018-10-21T04:00:58.972Z,24.50
2018-10-21T04:01:58.957Z,23.90
2018-10-21T04:02:59.012Z,23.90
2018-10-21T04:03:58.965Z,22.90
2018-10-21T04:04:58.929Z,25.10
2018-10-21T04:05:58.915Z,33.80
2018-10-21T04:06:58.907Z,27.00
2018-10-21T04:07:58.960Z,27.70
2018-10-21T04:08:58.891Z,34.10
2018-10-21T04:10:01.469Z,32.60
2018-10-21T04:10:58.863Z,31.80
2018-10-21T04:11:58.852Z,43.70
2018-10-21T04:12:58.912Z,37.40
2018-10-21T04:13:58.833Z,44.10
2018-10-21T04:14:58.824Z,47.10
2018-10-21T04:15:58.836Z,47.60
2018-10-21T04:16:58.802Z,35.60
2018-10-21T04:17:58.849Z,41.60
2018-10-21T04:18:58.781Z,45.70
2018-10-21T04:19:58.773Z,43.40
2018-10-21T04:20:58.761Z,45.90
2018-10-21T04:21:58.779Z,46.20
2018-10-21T04:22:58.798Z,44.70
2018-10-21T04:23:58.728Z,46.10
2018-10-21T04:24:58.717Z,46.30
2018-10-21T04:25:58.706Z,44.00
2018-10-21T04:26:58.699Z,40.60
2018-10-21T04:27:58.793Z,40.60
2018-10-21T04:28:58.673Z,40.40
2018-10-21T04:29:58.664Z,40.60
2018-10-21T04:30:59.416Z,51.80
2018-10-21T04:31:58.642Z,45.40
2018-10-21T04:32:58.698Z,35.30
2018-10-21T04:33:58.631Z,45.30
2018-10-21T04:34:58.611Z,39.80
2018-10-21T04:35:58.606Z,42.00
2018-10-21T04:36:58.589Z,45.90
2018-10-21T04:37:58.649Z,46.30
2018-10-21T04:38:58.572Z,44.50
2018-10-21T04:39:58.581Z,47.50
2018-10-21T04:40:58.547Z,45.90
2018-10-21T04:41:58.547Z,46.20
2018-10-21T04:42:58.586Z,48.50
2018-10-21T04:43:58.519Z,47.10
2018-10-21T04:44:58.509Z,42.90
2018-10-21T04:45:58.513Z,46.00
2018-10-21T04:46:58.615Z,47.70
2018-10-21T04:47:58.531Z,46.60
2018-10-21T04:48:58.463Z,46.70
2018-10-21T04:49:58.453Z,45.60
2018-10-21T04:50:58.441Z,46.20
2018-10-21T04:51:59.446Z,44.60
2018-10-21T04:52:58.487Z,44.10
2018-10-21T04:53:58.423Z,43.10
2018-10-21T04:54:58.398Z,36.80
2018-10-21T04:55:58.391Z,42.90
2018-10-21T04:56:58.378Z,41.00
2018-10-21T04:57:58.471Z,34.90
2018-10-21T04:58:58.361Z,39.20
2018-10-21T04:59:58.350Z,39.20
2018-10-21T05:00:58.339Z,40.50
2018-10-21T05:01:58.329Z,38.30
2018-10-21T05:02:58.389Z,42.70
2018-10-21T05:03:58.334Z,34.70
2018-10-21T05:04:58.302Z,38.00
2018-10-21T05:05:58.282Z,40.40
2018-10-21T05:06:58.271Z,35.30
2018-10-21T05:07:58.268Z,41.00
2018-10-21T05:08:58.326Z,43.20
2018-10-21T05:09:58.307Z,42.20
2018-10-21T05:10:58.235Z,44.50
2018-10-21T05:11:58.234Z,40.30
2018-10-21T05:12:58.912Z,39.50
2018-10-21T05:13:58.263Z,38.90
2018-10-21T05:14:58.192Z,39.70
2018-10-21T05:15:58.203Z,44.70
2018-10-21T05:16:58.168Z,46.60
2018-10-21T05:17:58.167Z,49.50
2018-10-21T05:18:58.212Z,45.70
2018-10-21T05:19:58.137Z,48.60
2018-10-21T05:20:58.134Z,44.20
2018-10-21T05:21:58.162Z,41.10
2018-10-21T05:22:58.108Z,45.90
2018-10-21T05:23:58.187Z,49.40
2018-10-21T05:24:58.087Z,46.50
2018-10-21T05:25:58.079Z,41.90
2018-10-21T05:26:58.064Z,45.10
2018-10-21T05:27:58.089Z,46.10
2018-10-21T05:28:58.479Z,45.50
2018-10-21T05:29:58.033Z,41.50
2018-10-21T05:30:58.022Z,36.40
2018-10-21T05:31:58.016Z,36.70
2018-10-21T05:32:57.999Z,38.40
2018-10-21T05:33:58.544Z,39.00
2018-10-21T05:34:57.992Z,36.50
2018-10-21T05:35:57.969Z,47.40
2018-10-21T05:36:58.008Z,49.70
2018-10-21T05:37:57.996Z,45.10
2018-10-21T05:38:58.013Z,48.70
2018-10-21T05:39:57.983Z,48.50
2018-10-21T05:40:57.922Z,45.00
2018-10-21T05:41:57.908Z,46.70
2018-10-21T05:42:57.899Z,43.40
2018-10-21T05:43:57.945Z,44.60
2018-10-21T05:44:57.885Z,43.80
2018-10-21T05:45:57.867Z,41.30
2018-10-21T05:46:57.879Z,43.80
2018-10-21T05:47:57.845Z,43.50
2018-10-21T05:48:57.934Z,47.50
2018-10-21T05:49:57.825Z,45.00
2018-10-21T05:50:57.814Z,39.00
2018-10-21T05:51:57.808Z,47.00
2018-10-21T05:52:57.801Z,36.30
2018-10-21T05:53:57.845Z,36.50
2018-10-21T05:54:58.406Z,42.60
2018-10-21T05:55:57.761Z,41.00
2018-10-21T05:56:57.749Z,46.80
2018-10-21T05:57:57.793Z,35.50
2018-10-21T05:58:57.797Z,46.90
2018-10-21T05:59:57.723Z,39.70
2018-10-21T06:00:57.709Z,41.30
2018-10-21T06:01:57.698Z,48.60
2018-10-21T06:02:57.777Z,51.50
2018-10-21T06:03:57.761Z,44.70
2018-10-21T06:04:57.673Z,49.50
2018-10-21T06:05:57.656Z,51.40
2018-10-21T06:06:57.645Z,52.10
2018-10-21T06:07:57.634Z,51.20
2018-10-21T06:08:57.705Z,47.60
2018-10-21T06:09:57.626Z,49.10
2018-10-21T06:10:57.608Z,50.40
2018-10-21T06:11:57.598Z,41.70
2018-10-21T06:12:57.590Z,40.20
2018-10-21T06:13:57.634Z,45.20
2018-10-21T06:14:57.560Z,40.60
2018-10-21T06:15:58.483Z,36.70
2018-10-21T06:16:57.548Z,45.00
2018-10-21T06:17:57.527Z,40.70
2018-10-21T06:18:57.976Z,42.70
2018-10-21T06:19:57.511Z,40.40
2018-10-21T06:20:57.506Z,33.40
2018-10-21T06:21:57.531Z,37.50
2018-10-21T06:22:57.484Z,43.50
2018-10-21T06:23:57.553Z,37.80
2018-10-21T06:24:57.457Z,44.10
2018-10-21T06:25:57.461Z,42.80
2018-10-21T06:26:57.434Z,40.70
2018-10-21T06:27:57.426Z,39.00
2018-10-21T06:28:57.477Z,42.10
2018-10-21T06:29:57.404Z,41.30
2018-10-21T06:30:57.390Z,43.90
2018-10-21T06:31:57.390Z,40.30
2018-10-21T06:32:57.416Z,43.20
2018-10-21T06:33:57.426Z,44.70
2018-10-21T06:34:57.351Z,40.90
2018-10-21T06:35:57.342Z,31.10
2018-10-21T06:36:57.892Z,35.80
2018-10-21T06:37:57.320Z,42.10
2018-10-21T06:38:57.409Z,34.30
2018-10-21T06:39:57.296Z,36.60
2018-10-21T06:40:57.291Z,39.10
2018-10-21T06:41:57.274Z,31.60
2018-10-21T06:42:57.262Z,35.40
2018-10-21T06:43:57.334Z,40.00
2018-10-21T06:44:57.276Z,43.20
2018-10-21T06:45:57.233Z,43.50
2018-10-21T06:46:57.224Z,37.50
2018-10-21T06:47:57.215Z,39.40
2018-10-21T06:48:57.207Z,41.60
2018-10-21T06:49:57.252Z,42.50
2018-10-21T06:50:57.200Z,41.00
2018-10-21T06:51:57.172Z,37.70
2018-10-21T06:52:57.158Z,38.30
2018-10-21T06:53:57.147Z,36.50
2018-10-21T06:54:57.207Z,37.80
2018-10-21T06:55:57.127Z,37.80
2018-10-21T06:56:57.131Z,42.40
2018-10-21T06:57:57.887Z,42.90
2018-10-21T06:58:57.094Z,43.90
2018-10-21T06:59:57.144Z,36.60
2018-10-21T07:00:57.075Z,41.10
2018-10-21T07:01:57.064Z,44.60
2018-10-21T07:02:57.053Z,38.80
2018-10-21T07:03:57.079Z,41.10
2018-10-21T07:04:57.148Z,33.20
2018-10-21T07:05:57.022Z,37.60
2018-10-21T07:06:57.014Z,32.40
2018-10-21T07:07:56.997Z,36.20
2018-10-21T07:08:56.988Z,41.10
2018-10-21T07:09:57.470Z,41.10
2018-10-21T07:10:56.966Z,40.80
2018-10-21T07:11:56.953Z,36.70
2018-10-21T07:12:56.947Z,39.20
2018-10-21T07:13:56.937Z,44.40
2018-10-21T07:14:56.984Z,41.90
2018-10-21T07:15:56.982Z,38.50
2018-10-21T07:16:56.908Z,34.40
2018-10-21T07:17:56.889Z,43.40
2018-10-21T07:18:57.388Z,36.10
2018-10-21T07:19:56.933Z,39.70
2018-10-21T07:20:56.859Z,39.20
2018-10-21T07:21:56.889Z,33.80
2018-10-21T07:22:56.837Z,36.30
2018-10-21T07:23:56.826Z,35.90
2018-10-21T07:24:56.877Z,40.70
2018-10-21T07:25:56.804Z,41.00
2018-10-21T07:26:56.796Z,34.70
2018-10-21T07:27:56.849Z,39.10
2018-10-21T07:28:56.771Z,36.80
2018-10-21T07:29:56.851Z,38.70
2018-10-21T07:30:56.752Z,36.90
2018-10-21T07:31:56.740Z,38.80
2018-10-21T07:32:56.732Z,40.20
2018-10-21T07:33:56.727Z,39.60
2018-10-21T07:34:56.777Z,40.30
2018-10-21T07:35:56.707Z,38.60
2018-10-21T07:36:56.688Z,36.50
2018-10-21T07:37:56.677Z,40.30
2018-10-21T07:38:56.665Z,39.90
2018-10-21T07:39:56.956Z,38.20
2018-10-21T07:40:56.646Z,39.50
2018-10-21T07:41:56.638Z,31.90
2018-10-21T07:42:56.627Z,29.00
2018-10-21T07:43:56.613Z,33.20
2018-10-21T07:44:56.676Z,33.60
2018-10-21T07:45:56.645Z,35.50
2018-10-21T07:46:56.591Z,35.50
2018-10-21T07:47:56.579Z,33.30
2018-10-21T07:48:56.603Z,34.90
2018-10-21T07:49:56.630Z,36.20
2018-10-21T07:50:56.541Z,33.40
2018-10-21T07:51:56.575Z,33.80
2018-10-21T07:52:56.516Z,34.10
2018-10-21T07:53:56.508Z,37.90
2018-10-21T07:54:56.558Z,33.70
2018-10-21T07:55:56.487Z,37.80
2018-10-21T07:56:56.472Z,33.20
2018-10-21T07:57:56.509Z,36.10
2018-10-21T07:58:56.450Z,30.60
2018-10-21T07:59:56.502Z,35.40
2018-10-21T08:00:57.493Z,34.80
2018-10-21T08:01:56.420Z,37.50
2018-10-21T08:02:56.408Z,42.30
2018-10-21T08:03:56.419Z,37.40
2018-10-21T08:04:56.450Z,38.20
2018-10-21T08:05:56.379Z,32.60
2018-10-21T08:06:56.364Z,37.40
2018-10-21T08:07:56.356Z,36.50
2018-10-21T08:08:56.345Z,36.00
2018-10-21T08:09:56.419Z,32.10
2018-10-21T08:10:56.320Z,36.80
2018-10-21T08:11:56.362Z,36.40
2018-10-21T08:12:56.301Z,33.90
2018-10-21T08:13:56.303Z,33.90
2018-10-21T08:14:56.380Z,35.10
2018-10-21T08:15:56.300Z,34.80
2018-10-21T08:16:56.264Z,32.00
2018-10-21T08:17:56.253Z,27.90
2018-10-21T08:18:56.239Z,30.30
2018-10-21T08:19:56.286Z,31.80
2018-10-21T08:20:56.217Z,30.60
2018-10-21T08:21:56.932Z,32.40
2018-10-21T08:22:56.193Z,29.00
2018-10-21T08:23:56.184Z,30.50
2018-10-21T08:24:56.236Z,25.60
2018-10-21T08:25:56.162Z,25.80
2018-10-21T08:26:56.154Z,27.20
2018-10-21T08:27:56.206Z,28.80
2018-10-21T08:28:56.132Z,27.00
2018-10-21T08:29:56.178Z,26.30
2018-10-21T08:30:56.106Z,25.00
2018-10-21T08:31:56.096Z,27.50
2018-10-21T08:32:56.084Z,23.70
2018-10-21T08:33:56.089Z,25.30
2018-10-21T08:34:56.123Z,25.90
2018-10-21T08:35:56.060Z,26.50
2018-10-21T08:36:56.042Z,27.00
2018-10-21T08:37:56.032Z,27.00
2018-10-21T08:38:56.024Z,23.70
2018-10-21T08:39:56.065Z,23.30
2018-10-21T08:40:56.066Z,23.90
2018-10-21T08:41:55.990Z,24.70
2018-10-21T08:42:56.883Z,24.50
2018-10-21T08:43:55.971Z,24.00
2018-10-21T08:44:55.954Z,24.20
2018-10-21T08:45:56.009Z,25.90
2018-10-21T08:46:55.933Z,23.40
2018-10-21T08:47:55.921Z,24.40
2018-10-21T08:48:55.947Z,21.60
2018-10-21T08:49:55.966Z,23.30
2018-10-21T08:50:55.954Z,26.00
2018-10-21T08:51:55.887Z,25.00
2018-10-21T08:52:55.871Z,23.50
2018-10-21T08:53:55.864Z,23.30
2018-10-21T08:54:55.902Z,25.60
2018-10-21T08:55:55.953Z,26.80
2018-10-21T08:56:55.827Z,23.90
2018-10-21T08:57:55.833Z,23.00
2018-10-21T08:58:55.807Z,23.30
2018-10-21T08:59:55.796Z,26.90
2018-10-21T09:00:55.879Z,24.50
2018-10-21T09:01:55.788Z,27.00
2018-10-21T09:02:55.765Z,26.20
2018-10-21T09:03:56.410Z,22.80
2018-10-21T09:04:55.742Z,26.70
2018-10-21T09:05:55.793Z,27.40
2018-10-21T09:06:55.732Z,28.00
2018-10-21T09:07:55.713Z,26.60
2018-10-21T09:08:55.701Z,25.20
2018-10-21T09:09:55.716Z,26.40
2018-10-21T09:10:55.954Z,25.80
2018-10-21T09:11:55.674Z,24.90
2018-10-21T09:12:55.668Z,24.80
2018-10-21T09:13:55.666Z,24.90
2018-10-21T09:14:55.696Z,24.70
2018-10-21T09:15:55.702Z,24.40
2018-10-21T09:16:55.616Z,24.30
2018-10-21T09:17:55.605Z,24.60
2018-10-21T09:18:55.608Z,24.60
2018-10-21T09:19:55.589Z,23.60
2018-10-21T09:20:55.635Z,23.40
2018-10-21T09:21:55.620Z,24.00
2018-10-21T09:22:55.553Z,23.20
2018-10-21T09:23:55.564Z,24.30
2018-10-21T09:24:56.417Z,21.70
2018-10-21T09:25:55.590Z,24.00
2018-10-21T09:26:55.509Z,23.60
2018-10-21T09:27:55.555Z,23.70
2018-10-21T09:28:55.489Z,24.30
2018-10-21T09:29:55.475Z,24.80
2018-10-21T09:30:55.544Z,24.30
2018-10-21T09:31:55.452Z,23.80
2018-10-21T09:32:55.442Z,24.70
2018-10-21T09:33:55.438Z,23.80
2018-10-21T09:34:55.420Z,24.30
2018-10-21T09:35:55.477Z,22.50
2018-10-21T09:36:55.438Z,22.10
2018-10-21T09:37:55.389Z,22.50
2018-10-21T09:38:55.378Z,22.60
2018-10-21T09:39:55.390Z,20.50
2018-10-21T09:40:55.424Z,21.90
2018-10-21T09:41:55.346Z,22.30
2018-10-21T09:42:55.359Z,23.80
2018-10-21T09:43:55.324Z,21.80
2018-10-21T09:44:55.315Z,21.80
2018-10-21T09:45:55.480Z,20.10
2018-10-21T09:46:55.292Z,22.00
2018-10-21T09:47:55.282Z,22.50
2018-10-21T09:48:55.308Z,20.20
2018-10-21T09:49:55.319Z,21.00
2018-10-21T09:50:55.315Z,20.70
2018-10-21T09:51:55.273Z,22.00
2018-10-21T09:52:55.232Z,21.60
2018-10-21T09:53:55.218Z,21.40
2018-10-21T09:54:55.252Z,20.10
2018-10-21T09:55:55.260Z,21.70
2018-10-21T09:56:55.184Z,20.70
2018-10-21T09:57:55.223Z,18.30
2018-10-21T09:58:55.163Z,18.70
2018-10-21T09:59:55.149Z,21.10
2018-10-21T10:00:55.248Z,20.90
2018-10-21T10:01:55.127Z,19.40
2018-10-21T10:02:55.119Z,20.60
2018-10-21T10:03:55.125Z,20.40
2018-10-21T10:04:55.248Z,20.60
2018-10-21T10:05:55.095Z,20.30
2018-10-21T10:06:55.462Z,18.50
2018-10-21T10:07:55.069Z,18.80
2018-10-21T10:08:55.057Z,19.30
2018-10-21T10:09:55.069Z,19.60
2018-10-21T10:10:55.033Z,20.40
2018-10-21T10:11:55.085Z,19.00
2018-10-21T10:12:55.036Z,18.90
2018-10-21T10:13:55.005Z,18.70
2018-10-21T10:14:54.991Z,17.60
2018-10-21T10:15:54.982Z,18.00
2018-10-21T10:16:55.036Z,18.20
2018-10-21T10:17:54.964Z,16.50
2018-10-21T10:18:54.999Z,17.50
2018-10-21T10:19:54.939Z,17.40
2018-10-21T10:20:54.932Z,17.30
2018-10-21T10:21:55.003Z,16.20
2018-10-21T10:22:54.991Z,16.40
2018-10-21T10:23:54.948Z,16.20
2018-10-21T10:24:54.934Z,16.70
2018-10-21T10:25:54.880Z,16.10
2018-10-21T10:26:54.930Z,16.60
2018-10-21T10:27:55.396Z,15.90
2018-10-21T10:28:54.844Z,15.70
2018-10-21T10:29:54.838Z,16.30
2018-10-21T10:30:54.885Z,15.40
2018-10-21T10:31:54.882Z,15.50
2018-10-21T10:32:54.802Z,15.70
2018-10-21T10:33:54.836Z,16.10
2018-10-21T10:34:54.779Z,15.70
2018-10-21T10:35:54.774Z,15.20
2018-10-21T10:36:54.886Z,15.70
2018-10-21T10:37:54.758Z,15.40
2018-10-21T10:38:54.743Z,15.10
2018-10-21T10:39:54.739Z,15.00
2018-10-21T10:40:54.722Z,14.80
2018-10-21T10:41:54.872Z,15.20
2018-10-21T10:42:54.728Z,16.10
2018-10-21T10:43:54.689Z,15.90
2018-10-21T10:44:54.682Z,15.10
2018-10-21T10:45:54.704Z,16.30
2018-10-21T10:46:54.724Z,17.00
2018-10-21T10:47:54.650Z,16.40
2018-10-21T10:48:55.433Z,16.00
2018-10-21T10:49:54.633Z,14.90
2018-10-21T10:50:54.624Z,15.40
2018-10-21T10:51:54.689Z,14.30
2018-10-21T10:52:54.612Z,14.00
2018-10-21T10:53:54.592Z,15.70
2018-10-21T10:54:54.585Z,13.80
2018-10-21T10:55:54.567Z,15.30
2018-10-21T10:56:54.626Z,15.70
2018-10-21T10:57:54.553Z,15.50
2018-10-21T10:58:54.541Z,16.20
2018-10-21T10:59:54.635Z,14.20
2018-10-21T11:00:54.530Z,13.60
2018-10-21T11:01:54.569Z,15.00
2018-10-21T11:02:54.502Z,15.00
2018-10-21T11:03:54.490Z,14.90
2018-10-21T11:04:54.479Z,15.30
2018-10-21T11:05:54.469Z,13.10
2018-10-21T11:06:54.544Z,14.60
2018-10-21T11:07:54.449Z,15.70
2018-10-21T11:08:54.442Z,14.30
2018-10-21T11:09:55.383Z,14.60
2018-10-21T11:10:54.424Z,12.70
2018-10-21T11:11:54.477Z,14.00
2018-10-21T11:12:54.409Z,14.50
2018-10-21T11:13:54.393Z,15.30
2018-10-21T11:14:54.385Z,14.30
2018-10-21T11:15:54.429Z,14.30
2018-10-21T11:16:54.427Z,12.60
2018-10-21T11:17:54.352Z,12.50
2018-10-21T11:18:54.355Z,14.10
2018-10-21T11:19:54.334Z,14.00
2018-10-21T11:20:54.327Z,13.00
2018-10-21T11:21:54.453Z,14.00
2018-10-21T11:22:54.401Z,13.40
2018-10-21T11:23:54.294Z,12.90
2018-10-21T11:24:54.305Z,13.00
2018-10-21T11:25:54.271Z,13.00
2018-10-21T11:26:54.369Z,11.20
2018-10-21T11:27:54.261Z,11.90
2018-10-21T11:28:54.247Z,12.40
2018-10-21T11:29:54.239Z,12.60
2018-10-21T11:30:54.904Z,11.90
2018-10-21T11:31:54.282Z,12.10
2018-10-21T11:32:54.219Z,13.00
2018-10-21T11:33:54.246Z,12.50
2018-10-21T11:34:54.188Z,12.80
2018-10-21T11:35:54.177Z,13.70
2018-10-21T11:36:54.241Z,14.00
2018-10-21T11:37:54.171Z,13.90
2018-10-21T11:38:54.147Z,13.00
2018-10-21T11:39:54.149Z,13.10
2018-10-21T11:40:54.129Z,14.30
2018-10-21T11:41:54.177Z,13.90
2018-10-21T11:42:54.106Z,14.00
2018-10-21T11:43:54.100Z,12.90
2018-10-21T11:44:54.085Z,14.30
2018-10-21T11:45:54.150Z,14.00
2018-10-21T11:46:54.127Z,12.50
2018-10-21T11:47:54.061Z,14.20
2018-10-21T11:48:54.050Z,13.50
2018-10-21T11:49:54.039Z,13.90
2018-10-21T11:50:54.028Z,12.70
2018-10-21T11:51:54.975Z,12.20
2018-10-21T11:52:54.011Z,13.10
2018-10-21T11:53:54.003Z,13.70
2018-10-21T11:54:54.009Z,12.50
2018-10-21T11:55:53.980Z,12.70
2018-10-21T11:56:54.043Z,13.30
2018-10-21T11:57:54.009Z,13.00
2018-10-21T11:58:53.955Z,11.80
2018-10-21T11:59:53.941Z,11.70
2018-10-21T12:00:53.941Z,12.40
2018-10-21T12:01:53.922Z,11.90
2018-10-21T12:02:53.975Z,11.70
2018-10-21T12:03:53.912Z,11.80
2018-10-21T12:04:53.894Z,11.40
2018-10-21T12:05:53.886Z,10.50
2018-10-21T12:06:53.901Z,10.90
2018-10-21T12:07:53.927Z,10.70
2018-10-21T12:08:53.858Z,10.60
2018-10-21T12:09:53.908Z,10.10
2018-10-21T12:10:53.841Z,10.30
2018-10-21T12:11:53.838Z,10.60
2018-10-21T12:12:53.965Z,9.80
2018-10-21T12:13:53.808Z,10.00
2018-10-21T12:14:53.803Z,9.80
2018-10-21T12:15:53.803Z,9.60
2018-10-21T12:16:53.777Z,9.60
2018-10-21T12:17:53.835Z,9.20
2018-10-21T12:18:53.759Z,8.90
2018-10-21T12:19:53.774Z,8.90
2018-10-21T12:20:53.748Z,9.20
2018-10-21T12:21:53.729Z,8.90
2018-10-21T12:22:53.801Z,8.40
2018-10-21T12:23:53.708Z,8.30
2018-10-21T12:24:53.700Z,8.20
2018-10-21T12:25:53.688Z,7.30
2018-10-21T12:26:53.688Z,7.80
2018-10-21T12:27:53.740Z,6.90
2018-10-21T12:28:53.711Z,6.10
2018-10-21T12:29:53.647Z,6.00
2018-10-21T12:30:53.679Z,6.20
2018-10-21T12:31:53.630Z,5.70
2018-10-21T12:32:53.680Z,5.50
2018-10-21T12:33:56.447Z,5.50
2018-10-21T12:34:53.603Z,5.00
2018-10-21T12:35:53.618Z,5.30
2018-10-21T12:36:53.622Z,5.20
2018-10-21T12:37:53.643Z,5.20
2018-10-21T12:38:53.560Z,5.40
2018-10-21T12:39:53.599Z,5.60
2018-10-21T12:40:53.551Z,5.30
2018-10-21T12:41:53.530Z,5.40
2018-10-21T12:42:53.618Z,6.10
2018-10-21T12:43:53.511Z,6.10
2018-10-21T12:44:53.507Z,5.60
2018-10-21T12:45:53.504Z,6.20
2018-10-21T12:46:53.501Z,5.80
2018-10-21T12:47:53.535Z,6.10
2018-10-21T12:48:53.464Z,5.80
2018-10-21T12:49:53.449Z,5.50
2018-10-21T12:50:53.439Z,6.10
2018-10-21T12:51:53.454Z,6.10
2018-10-21T12:52:53.510Z,5.70
2018-10-21T12:53:53.426Z,5.80